createdAt,value
2022-10-13T00:00:19.961Z,12.37
2022-10-13T00:05:22.221Z,12.40
2022-10-13T00:10:25.901Z,12.41
2022-10-13T00:15:27.775Z,12.42
2022-10-13T00:20:29.555Z,12.42
2022-10-13T00:25:31.286Z,12.38
2022-10-13T00:30:38.134Z,12.32
2022-10-13T00:35:47.031Z,12.23
2022-10-13T00:40:55.141Z,12.14
2022-10-13T00:45:57.086Z,12.11
2022-10-13T00:50:59.002Z,12.11
2022-10-13T00:56:01.432Z,12.07
2022-10-13T01:01:05.018Z,12.02
2022-10-13T01:06:08.342Z,11.97
2022-10-13T01:12:03.056Z,11.95
2022-10-13T01:17:23.707Z,11.94
2022-10-13T01:22:50.190Z,11.91
2022-10-13T01:28:40.463Z,11.90
2022-10-13T01:33:49.959Z,11.86
2022-10-13T01:38:59.769Z,11.87
2022-10-13T01:44:22.800Z,11.91
2022-10-13T01:49:35.661Z,11.92
2022-10-13T01:54:37.511Z,11.94
2022-10-13T01:59:39.384Z,11.91
2022-10-13T02:04:57.913Z,11.88
2022-10-13T02:10:11.958Z,11.84
2022-10-13T02:15:18.349Z,11.83
2022-10-13T02:20:22.370Z,11.82
2022-10-13T02:25:25.435Z,11.81
2022-10-13T02:30:30.410Z,11.81
2022-10-13T02:35:33.460Z,11.78
2022-10-13T02:40:36.821Z,11.77
2022-10-13T02:45:38.705Z,11.80
2022-10-13T02:50:40.496Z,11.77
2022-10-13T02:55:42.557Z,11.72
2022-10-13T03:00:44.476Z,11.67
2022-10-13T03:05:46.377Z,11.65
2022-10-13T03:10:48.182Z,11.63
2022-10-13T03:15:50.153Z,11.60
2022-10-13T03:21:04.234Z,11.55
2022-10-13T03:26:06.506Z,11.47
2022-10-13T03:31:12.170Z,11.41
2022-10-13T03:36:14.435Z,11.35
2022-10-13T03:41:19.626Z,11.28
2022-10-13T03:46:28.407Z,11.24
2022-10-13T03:51:32.584Z,11.21
2022-10-13T03:56:34.479Z,11.18
2022-10-13T04:01:36.317Z,11.19
2022-10-13T04:06:38.892Z,11.18
2022-10-13T04:11:40.711Z,11.19
2022-10-13T04:16:42.535Z,11.17
2022-10-13T04:21:44.879Z,11.19
2022-10-13T04:26:46.751Z,11.19
2022-10-13T04:31:48.693Z,11.19
2022-10-13T04:36:51.905Z,11.17
2022-10-13T04:41:53.742Z,11.14
2022-10-13T04:46:55.639Z,11.11
2022-10-13T04:51:57.552Z,11.08
2022-10-13T04:56:59.422Z,11.08
2022-10-13T05:02:03.433Z,11.08
2022-10-13T05:07:17.416Z,11.09
2022-10-13T05:12:20.931Z,11.09
2022-10-13T05:17:23.545Z,11.09
2022-10-13T05:22:26.112Z,11.10
2022-10-13T05:27:28.172Z,11.09
2022-10-13T05:32:30.243Z,11.09
2022-10-13T05:37:32.086Z,11.10
2022-10-13T05:42:36.062Z,11.10
2022-10-13T05:47:37.926Z,11.11
2022-10-13T05:52:41.018Z,11.17
2022-10-13T05:57:48.104Z,11.23
2022-10-13T06:02:53.324Z,11.30
2022-10-13T06:07:56.108Z,11.33
2022-10-13T06:12:57.921Z,11.31
2022-10-13T06:18:11.732Z,11.32
2022-10-13T06:23:13.804Z,11.31
2022-10-13T06:28:16.462Z,11.30
2022-10-13T06:33:18.568Z,11.28
2022-10-13T06:38:20.682Z,11.27
2022-10-13T06:43:24.967Z,11.26
2022-10-13T06:48:37.312Z,11.27
2022-10-13T06:53:39.409Z,11.28
2022-10-13T06:58:41.872Z,11.28
2022-10-13T07:03:43.808Z,11.31
2022-10-13T07:08:45.971Z,11.34
2022-10-13T07:13:48.228Z,11.41
2022-10-13T07:18:50.933Z,11.49
2022-10-13T07:23:52.861Z,11.65
2022-10-13T07:28:55.106Z,11.80
2022-10-13T07:33:59.739Z,11.95
2022-10-13T07:39:04.180Z,12.16
2022-10-13T07:44:06.763Z,12.40
2022-10-13T07:49:11.185Z,12.72
2022-10-13T07:54:15.744Z,13.00
2022-10-13T07:59:17.710Z,13.20
2022-10-13T08:04:19.856Z,13.35
2022-10-13T08:09:22.016Z,13.41
2022-10-13T08:14:24.161Z,13.41
2022-10-13T08:19:26.724Z,13.39
2022-10-13T08:24:28.786Z,13.38
2022-10-13T08:29:30.794Z,13.34
2022-10-13T08:34:34.212Z,13.32
2022-10-13T08:39:36.092Z,13.37
2022-10-13T08:45:10.830Z,13.61
2022-10-13T08:50:15.566Z,13.86
2022-10-13T08:55:42.459Z,14.06
2022-10-13T09:00:44.770Z,14.22
2022-10-13T09:06:01.669Z,14.39
2022-10-13T09:11:04.148Z,14.56
2022-10-13T09:16:06.755Z,14.72
2022-10-13T09:21:34.708Z,14.87
2022-10-13T09:26:40.060Z,14.99
2022-10-13T09:31:42.231Z,15.12
2022-10-13T09:37:16.493Z,15.20
2022-10-13T09:42:28.172Z,15.28
2022-10-13T09:47:33.757Z,15.28
2022-10-13T09:52:36.210Z,15.39
2022-10-13T09:57:51.853Z,15.42
2022-10-13T10:03:32.763Z,15.50
2022-10-13T10:09:04.128Z,15.51
2022-10-13T10:14:25.293Z,15.63
2022-10-13T10:19:46.983Z,15.69
2022-10-13T10:25:19.690Z,15.72
2022-10-13T10:30:22.424Z,15.69
2022-10-13T10:35:41.666Z,15.68
2022-10-13T10:41:07.689Z,15.71
2022-10-13T10:46:37.674Z,15.75
2022-10-13T10:51:39.687Z,15.80
2022-10-13T10:57:01.564Z,15.92
2022-10-13T11:02:37.773Z,16.00
2022-10-13T11:07:39.591Z,16.04
2022-10-13T11:12:50.415Z,16.04
2022-10-13T11:17:52.934Z,16.08
2022-10-13T11:23:00.522Z,16.27
2022-10-13T11:28:22.485Z,16.47
2022-10-13T11:33:34.670Z,16.58
2022-10-13T11:38:39.034Z,16.49
2022-10-13T11:43:47.486Z,16.41
2022-10-13T11:49:05.185Z,16.45
2022-10-13T11:54:27.597Z,16.50
2022-10-13T11:59:35.766Z,16.53
2022-10-13T12:04:42.789Z,16.58
2022-10-13T12:09:49.329Z,16.64
2022-10-13T12:14:56.458Z,16.68
2022-10-13T12:20:03.043Z,16.66
2022-10-13T12:25:07.577Z,16.63
2022-10-13T12:30:41.256Z,16.61
2022-10-13T12:35:43.196Z,16.59
2022-10-13T12:40:51.131Z,16.55
2022-10-13T12:45:53.063Z,16.55
2022-10-13T12:51:07.039Z,16.56
2022-10-13T12:56:23.645Z,16.60
2022-10-13T13:01:30.892Z,16.63
2022-10-13T13:06:36.765Z,16.65
2022-10-13T13:11:39.465Z,16.66
2022-10-13T13:17:03.260Z,16.67
2022-10-13T13:22:07.155Z,16.67
2022-10-13T13:27:18.010Z,16.68
2022-10-13T13:32:22.536Z,16.66
2022-10-13T13:37:52.575Z,16.64
2022-10-13T13:42:55.478Z,16.60
2022-10-13T13:48:01.322Z,16.60
2022-10-13T13:53:05.094Z,16.61
2022-10-13T13:58:06.950Z,16.64
2022-10-13T14:03:09.083Z,16.64
2022-10-13T14:08:11.328Z,16.64
2022-10-13T14:13:13.281Z,16.64
2022-10-13T14:18:16.503Z,16.67
2022-10-13T14:23:18.476Z,16.67
2022-10-13T14:28:20.616Z,16.66
2022-10-13T14:33:22.722Z,16.59
2022-10-13T14:38:24.765Z,16.53
2022-10-13T14:43:27.130Z,16.45
2022-10-13T14:48:34.292Z,16.37
2022-10-13T14:53:38.822Z,16.31
2022-10-13T14:58:40.908Z,16.28
2022-10-13T15:03:43.121Z,16.26
2022-10-13T15:08:45.443Z,16.24
2022-10-13T15:13:47.765Z,16.20
2022-10-13T15:18:49.910Z,16.16
2022-10-13T15:23:52.945Z,16.11
2022-10-13T15:28:54.888Z,16.05
2022-10-13T15:33:57.362Z,15.99
2022-10-13T15:39:00.396Z,15.92
2022-10-13T15:44:02.372Z,15.85
2022-10-13T15:49:04.159Z,15.77
2022-10-13T15:54:05.984Z,15.70
2022-10-13T15:59:08.004Z,15.63
2022-10-13T16:04:09.833Z,15.58
2022-10-13T16:09:11.746Z,15.52
2022-10-13T16:14:13.596Z,15.49
2022-10-13T16:19:15.384Z,15.46
2022-10-13T16:24:17.858Z,15.42
2022-10-13T16:29:19.593Z,15.40
2022-10-13T16:34:23.193Z,15.36
2022-10-13T16:39:25.112Z,15.34
2022-10-13T16:44:27.174Z,15.30
2022-10-13T16:49:42.974Z,15.27
2022-10-13T16:54:46.840Z,15.25
2022-10-13T16:59:48.621Z,15.25
2022-10-13T17:04:50.795Z,15.22
2022-10-13T17:09:52.698Z,15.19
2022-10-13T17:14:54.611Z,15.16
2022-10-13T17:19:56.519Z,15.14
2022-10-13T17:24:58.431Z,15.11
2022-10-13T17:30:00.443Z,15.07
2022-10-13T17:35:02.958Z,15.03
2022-10-13T17:40:05.287Z,15.00
2022-10-13T17:45:07.863Z,14.96
2022-10-13T17:50:09.783Z,14.90
2022-10-13T17:55:11.867Z,14.87
2022-10-13T18:00:14.448Z,14.80
2022-10-13T18:05:16.814Z,14.75
2022-10-13T18:10:19.857Z,14.71
2022-10-13T18:15:21.722Z,14.66
2022-10-13T18:20:23.741Z,14.61
2022-10-13T18:25:27.136Z,14.56
2022-10-13T18:30:29.157Z,14.50
2022-10-13T18:35:32.318Z,14.47
2022-10-13T18:40:34.352Z,14.45
2022-10-13T18:45:36.288Z,14.42
2022-10-13T18:50:39.422Z,14.40
2022-10-13T18:55:43.952Z,14.40
2022-10-13T19:00:45.903Z,14.40
2022-10-13T19:05:48.235Z,14.41
2022-10-13T19:10:50.781Z,14.41
2022-10-13T19:16:00.106Z,14.37
2022-10-13T19:21:01.935Z,14.31
2022-10-13T19:26:15.134Z,14.26
2022-10-13T19:31:21.686Z,14.23
2022-10-13T19:36:37.521Z,14.22
2022-10-13T19:41:39.559Z,14.21
2022-10-13T19:46:43.258Z,14.21
2022-10-13T19:51:46.280Z,14.22
2022-10-13T19:56:49.689Z,14.23
2022-10-13T20:01:51.563Z,14.23
2022-10-13T20:06:53.929Z,14.22
2022-10-13T20:11:55.938Z,14.20
2022-10-13T20:16:58.891Z,14.19
2022-10-13T20:22:01.818Z,14.14
2022-10-13T20:27:03.842Z,14.14
2022-10-13T20:32:06.674Z,14.11
2022-10-13T20:37:10.747Z,14.07
2022-10-13T20:42:14.328Z,14.00
2022-10-13T20:47:16.540Z,13.92
2022-10-13T20:52:19.486Z,13.89
2022-10-13T20:57:24.757Z,13.90
2022-10-13T21:02:28.846Z,13.90
2022-10-13T21:07:30.868Z,13.90
2022-10-13T21:12:33.266Z,13.88
2022-10-13T21:17:36.237Z,13.82
2022-10-13T21:22:39.591Z,13.73
2022-10-13T21:27:45.041Z,13.66
2022-10-13T21:32:46.901Z,13.56
2022-10-13T21:37:48.901Z,13.47
2022-10-13T21:42:50.877Z,13.43
2022-10-13T21:47:52.755Z,13.42
2022-10-13T21:52:54.664Z,13.37
2022-10-13T21:58:05.263Z,13.36
2022-10-13T22:03:07.836Z,13.34
2022-10-13T22:08:09.638Z,13.34
2022-10-13T22:13:11.441Z,13.36
2022-10-13T22:18:13.336Z,13.38
2022-10-13T22:23:15.254Z,13.40
2022-10-13T22:28:18.536Z,13.42
2022-10-13T22:33:20.448Z,13.41
2022-10-13T22:38:28.051Z,13.41
2022-10-13T22:43:29.940Z,13.40
2022-10-13T22:48:36.966Z,13.40
2022-10-13T22:53:44.651Z,13.41
2022-10-13T22:58:56.056Z,13.43
2022-10-13T23:03:58.984Z,13.44
2022-10-13T23:09:05.587Z,13.48
2022-10-13T23:14:07.507Z,13.51
2022-10-13T23:19:09.550Z,13.54
2022-10-13T23:24:11.926Z,13.51
2022-10-13T23:29:13.773Z,13.48
2022-10-13T23:34:15.612Z,13.45
2022-10-13T23:39:17.548Z,13.41
2022-10-13T23:44:19.703Z,13.39
2022-10-13T23:49:22.742Z,13.40
2022-10-13T23:54:24.721Z,13.37
2022-10-13T23:59:26.537Z,13.31
